Terminal Aerodrome Forecast
Issued by NWS

Home | Current Version | Previous Version | Text Only | Print | Product List | Glossary On
Versions: 1 2 3 4 5 6 7 8 9 10 11 12 13 14 15 16 17 18 19 20
000
FTAK31 PAJN 200900 AAB
TAFAPG
TAF AMD
PAPG 200914Z 2009/2106 12008KT 6SM -SHRA BR SCT020 BKN040 OVC060
     FM201200 VRB03KT P6SM -SHRA FEW003 BKN015 OVC040
     FM201700 VRB04KT 5SM -SHRA SCT015 BKN040 OVC060
     FM202100 06005KT P6SM -SHRA SCT025 OVC050
     FM210300 VRB03KT 6SM -SHRA BR SCT020 OVC040
      AMD LTD TO CLD VIS AND WIND 2006/2015=

USA.gov is the U.S. government's official web portal to all federal, state and local government web resources and services.